Test Metars

LFOB 282300Z AUTO 23010KT 200V270 9999 BKN018 OVC026 15/13 Q1015 NOSIG

 

Available data for LFOB from the past 2 hours
BEAUVAIS/TILLE(A

Réalisateur / Photographe